Time;durP1;ratioP1;P1;durP2;ratioP2;P2;SDS_P1;SDS_P2;PMS_P1;PMS_P2;Temp;Humidity;BMP_temperature;BMP_pressure;BME280_temperature;BME280_humidity;BME280_pressure;Samples;Min_cycle;Max_cycle;Signal;HPM_P1;HPM_P2
2023/07/22 00:00:11;;;;;;;;;;;;;;;18.00;nan;100245.38;5051226;28;19913;-82
2023/07/22 00:02:36;;;;;;;;;;;;;;;18.00;nan;100213.25;5043057;28;19928;-82
2023/07/22 00:05:01;;;;;;;;;;;;;;;18.03;nan;100243.09;5050809;28;20026;-82
2023/07/22 00:07:27;;;;;;;;;;;;;;;18.07;nan;100250.69;5050416;28;20365;-82
2023/07/22 00:09:52;;;;;;;;;;;;;;;;;;5049520;28;20286;-82
2023/07/22 00:12:20;;;;;;;;;;;;;;;18.00;nan;100240.00;5048565;28;19917;-82
2023/07/22 00:14:45;;;;;;;;;;;;;;;;;;5050847;28;19965;-82
2023/07/22 00:17:10;;;;;;;;;;;;;;;17.93;nan;100247.22;5050392;28;19924;-82
2023/07/22 00:19:35;;;;;;;;;;;;;;;17.90;nan;100243.09;5049268;28;19917;-82
2023/07/22 00:22:01;;;;;;;;;;;;;;;17.88;nan;100253.19;5043215;28;19917;-83
2023/07/22 00:24:26;;;;;;;;;;;;;;;17.87;nan;100256.88;5051356;28;19963;-82
2023/07/22 00:26:51;;;;;;;;;;;;;;;17.83;nan;100256.47;5051674;28;19917;-82
2023/07/22 00:29:17;;;;;;;;;;;;;;;17.79;nan;100249.03;5052078;28;19931;-83
2023/07/22 00:31:42;;;;;;;;;;;;;;;17.77;nan;100248.41;5047133;28;19941;-82
2023/07/22 00:34:08;;;;;;;;;;;;;;;17.76;nan;100250.28;5054642;28;19984;-82
2023/07/22 00:36:33;;;;;;;;;;;;;;;17.77;nan;100243.88;5038819;28;19916;-82
2023/07/22 00:38:58;;;;;;;;;;;;;;;17.81;nan;100241.66;5054138;28;19944;-82
2023/07/22 00:41:23;;;;;;;;;;;;;;;17.85;nan;100232.19;5046547;28;20015;-82
2023/07/22 00:43:48;;;;;;;;;;;;;;;17.87;nan;100240.81;5053670;28;20309;-82
2023/07/22 00:46:14;;;;;;;;;;;;;;;17.87;nan;100245.34;5054040;28;19946;-82
2023/07/22 00:48:39;;;;;;;;;;;;;;;;;;5048212;28;19917;-82
2023/07/22 00:51:05;;;;;;;;;;;;;;;17.83;nan;100239.63;5055761;28;19927;-82
2023/07/22 00:53:30;;;;;;;;;;;;;;;17.85;nan;100231.38;5052489;28;19916;-82
2023/07/22 00:55:55;;;;;;;;;;;;;;;17.85;nan;100237.53;5047555;28;19917;-81
2023/07/22 00:58:21;;;;;;;;;;;;;;;17.87;nan;100237.34;5051210;28;20380;-81
2023/07/22 01:00:46;;;;;;;;;;;;;;;17.81;nan;100236.31;5052909;28;20496;-81
2023/07/22 01:03:12;;;;;;;;;;;;;;;17.77;nan;100235.88;5053151;28;20015;-81
2023/07/22 01:05:39;;;;;;;;;;;;;;;17.73;nan;100236.47;5051674;28;20000;-82
2023/07/22 01:08:04;;;;;;;;;;;;;;;17.68;nan;100230.94;5052196;28;19995;-82
2023/07/22 01:10:29;;;;;;;;;;;;;;;17.61;nan;100226.41;5045152;28;20026;-82
2023/07/22 01:12:55;;;;;;;;;;;;;;;17.50;nan;100235.03;5052520;28;19993;-82
2023/07/22 01:15:21;;;;;;;;;;;;;;;17.43;nan;100231.53;5059118;28;19916;-82
2023/07/22 01:17:46;;;;;;;;;;;;;;;17.38;nan;100226.81;5049378;28;19978;-82
2023/07/22 01:20:12;;;;;;;;;;;;;;;17.35;nan;100221.88;5054720;28;20298;-81
2023/07/22 01:22:38;;;;;;;;;;;;;;;17.29;nan;100230.69;5056520;28;20395;-82
2023/07/22 01:25:03;;;;;;;;;;;;;;;17.23;nan;100233.34;5053591;28;19924;-82
2023/07/22 01:27:29;;;;;;;;;;;;;;;17.14;nan;100236.22;5052860;28;20446;-82
2023/07/22 01:29:54;;;;;;;;;;;;;;;17.12;nan;100238.25;5050486;28;19912;-82
2023/07/22 01:32:22;;;;;;;;;;;;;;;17.08;nan;100226.31;5053032;28;20007;-82
2023/07/22 01:34:47;;;;;;;;;;;;;;;17.05;nan;100226.75;5063728;28;19912;-81
2023/07/22 01:37:12;;;;;;;;;;;;;;;17.04;nan;100219.75;5053407;28;19924;-81
2023/07/22 01:39:38;;;;;;;;;;;;;;;17.07;nan;100224.69;5054929;28;19916;-82
2023/07/22 01:42:03;;;;;;;;;;;;;;;17.11;nan;100230.44;5050162;28;19920;-81
2023/07/22 01:44:29;;;;;;;;;;;;;;;17.10;nan;100220.78;5051801;28;19928;-82
2023/07/22 01:46:54;;;;;;;;;;;;;;;17.08;nan;100220.97;5061576;28;19962;-82
2023/07/22 01:49:19;;;;;;;;;;;;;;;17.09;nan;100222.66;5062198;28;20362;-82
2023/07/22 01:51:45;;;;;;;;;;;;;;;;;;5069841;28;19980;-82
2023/07/22 01:54:10;;;;;;;;;;;;;;;17.12;nan;100216.88;5070721;28;19963;-82
2023/07/22 01:56:37;;;;;;;;;;;;;;;17.13;nan;100213.19;5070895;28;19948;-82
2023/07/22 01:59:02;;;;;;;;;;;;;;;17.14;nan;100212.16;5070338;28;19943;-82
2023/07/22 02:01:28;;;;;;;;;;;;;;;17.19;nan;100203.53;5068997;28;20298;-82
2023/07/22 02:03:53;;;;;;;;;;;;;;;17.26;nan;100209.72;5055209;28;20026;-83
2023/07/22 02:06:19;;;;;;;;;;;;;;;17.33;nan;100202.53;5062259;28;19925;-82
2023/07/22 02:08:45;;;;;;;;;;;;;;;17.37;nan;100197.59;5055523;28;19923;-82
2023/07/22 02:11:10;;;;;;;;;;;;;;;;;;5051754;28;19984;-82
2023/07/22 02:13:35;;;;;;;;;;;;;;;17.38;nan;100183.22;5056465;28;20345;-82
2023/07/22 02:16:01;;;;;;;;;;;;;;;17.40;nan;100202.56;5048781;28;20020;-83
2023/07/22 02:18:27;;;;;;;;;;;;;;;17.42;nan;100205.81;5055880;28;19999;-82
2023/07/22 02:20:52;;;;;;;;;;;;;;;17.45;nan;100205.44;5052980;28;19925;-83
2023/07/22 02:23:18;;;;;;;;;;;;;;;17.47;nan;100202.53;5048273;28;19923;-82
2023/07/22 02:25:43;;;;;;;;;;;;;;;17.47;nan;100197.19;5055818;28;19916;-82
2023/07/22 02:28:09;;;;;;;;;;;;;;;17.44;nan;100208.28;5054092;28;19913;-82
2023/07/22 02:30:34;;;;;;;;;;;;;;;17.36;nan;100223.50;5055234;28;19916;-83
2023/07/22 02:33:00;;;;;;;;;;;;;;;17.30;nan;100240.34;5052863;28;20298;-82
2023/07/22 02:35:25;;;;;;;;;;;;;;;17.12;nan;100224.09;5055832;28;20020;-82
2023/07/22 02:37:50;;;;;;;;;;;;;;;16.86;nan;100232.84;5050684;28;19924;-82
2023/07/22 02:40:15;;;;;;;;;;;;;;;16.71;nan;100252.47;5050522;28;19925;-82
2023/07/22 02:42:40;;;;;;;;;;;;;;;16.67;nan;100245.06;5051281;28;19920;-82
2023/07/22 02:45:07;;;;;;;;;;;;;;;16.62;nan;100242.16;5055117;28;19917;-82
2023/07/22 02:47:34;;;;;;;;;;;;;;;;;;5057204;28;19984;-81
2023/07/22 02:49:59;;;;;;;;;;;;;;;16.50;nan;100239.22;5059669;28;19917;-82
2023/07/22 02:52:24;;;;;;;;;;;;;;;16.38;nan;100222.13;5057533;28;19923;-82
2023/07/22 02:55:06;;;;;;;;;;;;;;;16.24;nan;100208.69;5064419;28;19924;-81
2023/07/22 02:57:31;;;;;;;;;;;;;;;16.16;nan;100227.53;5054372;28;19939;-81
2023/07/22 02:59:56;;;;;;;;;;;;;;;16.10;nan;100215.81;5057559;28;20425;-81
2023/07/22 03:02:21;;;;;;;;;;;;;;;16.02;nan;100204.47;5053671;28;19944;-81
2023/07/22 03:04:47;;;;;;;;;;;;;;;15.95;nan;100203.59;5074083;28;19920;-82
2023/07/22 03:07:12;;;;;;;;;;;;;;;15.88;nan;100193.72;5064575;28;19927;-82
2023/07/22 03:09:37;;;;;;;;;;;;;;;15.76;nan;100195.28;5064148;28;19938;-82
2023/07/22 03:12:02;;;;;;;;;;;;;;;;;;5061264;28;19920;-81
2023/07/22 03:14:28;;;;;;;;;;;;;;;15.65;nan;100193.09;5062598;28;19932;-81
2023/07/22 03:16:54;;;;;;;;;;;;;;;15.64;nan;100200.28;5045012;28;19917;-81
2023/07/22 03:19:19;;;;;;;;;;;;;;;15.65;nan;100201.09;5041912;28;20012;-81
2023/07/22 03:21:44;;;;;;;;;;;;;;;15.61;nan;100208.66;5050713;28;20035;-81
2023/07/22 03:24:09;;;;;;;;;;;;;;;15.60;nan;100191.00;5049598;28;20346;-81
2023/07/22 03:26:34;;;;;;;;;;;;;;;15.54;nan;100191.78;5049541;28;19930;-80
2023/07/22 03:28:59;;;;;;;;;;;;;;;15.52;nan;100193.81;5049346;28;20004;-81
2023/07/22 03:31:28;;;;;;;;;;;;;;;15.54;nan;100190.94;5052141;28;19974;-82
2023/07/22 03:33:53;;;;;;;;;;;;;;;15.53;nan;100189.31;5051216;28;20003;-82
2023/07/22 03:36:18;;;;;;;;;;;;;;;15.58;nan;100200.22;5045800;28;19920;-82
2023/07/22 03:38:43;;;;;;;;;;;;;;;15.62;nan;100210.28;5056044;28;19978;-82
2023/07/22 03:41:08;;;;;;;;;;;;;;;15.67;nan;100207.88;5051392;28;19917;-82
2023/07/22 03:43:33;;;;;;;;;;;;;;;15.75;nan;100193.59;5044114;28;19919;-82
2023/07/22 03:45:59;;;;;;;;;;;;;;;15.79;nan;100194.06;5048144;28;19921;-82
2023/07/22 03:48:24;;;;;;;;;;;;;;;15.87;nan;100199.22;5048780;28;19913;-82
2023/07/22 03:50:49;;;;;;;;;;;;;;;15.97;nan;100206.88;5049633;28;19996;-82
2023/07/22 03:53:14;;;;;;;;;;;;;;;16.04;nan;100197.06;5052329;28;19924;-82
2023/07/22 03:55:39;;;;;;;;;;;;;;;16.10;nan;100202.47;5052285;28;19913;-83
2023/07/22 03:58:04;;;;;;;;;;;;;;;16.13;nan;100198.56;5050205;28;19963;-82
2023/07/22 04:00:31;;;;;;;;;;;;;;;16.19;nan;100210.31;5050372;28;19932;-83
2023/07/22 04:02:56;;;;;;;;;;;;;;;16.23;nan;100212.41;5047364;28;19975;-82
2023/07/22 04:05:21;;;;;;;;;;;;;;;16.23;nan;100222.22;5051534;28;19917;-82
2023/07/22 04:07:46;;;;;;;;;;;;;;;16.18;nan;100212.16;5059466;28;20108;-82
2023/07/22 04:10:11;;;;;;;;;;;;;;;16.17;nan;100202.50;5039939;28;20393;-82
2023/07/22 04:12:37;;;;;;;;;;;;;;;16.19;nan;100205.00;5049724;28;19967;-82
2023/07/22 04:15:03;;;;;;;;;;;;;;;16.21;nan;100202.91;5052643;28;19917;-82
2023/07/22 04:17:28;;;;;;;;;;;;;;;16.14;nan;100208.25;5054639;28;20008;-82
2023/07/22 04:19:54;;;;;;;;;;;;;;;16.06;nan;100211.03;5056952;28;19952;-82
2023/07/22 04:22:19;;;;;;;;;;;;;;;;;;5059925;28;20275;-82
2023/07/22 04:24:44;;;;;;;;;;;;;;;15.98;nan;100211.22;5067597;28;19924;-82
2023/07/22 04:27:09;;;;;;;;;;;;;;;15.92;nan;100213.66;5050977;28;19940;-82
2023/07/22 04:29:35;;;;;;;;;;;;;;;15.96;nan;100210.56;5054652;28;19917;-82
2023/07/22 04:32:01;;;;;;;;;;;;;;;15.99;nan;100210.19;5053877;28;19988;-82
2023/07/22 04:34:30;;;;;;;;;;;;;;;16.08;nan;100211.69;5059161;28;19927;-83
2023/07/22 04:36:55;;;;;;;;;;;;;;;16.21;nan;100209.09;5056482;28;20366;-82
2023/07/22 04:39:21;;;;;;;;;;;;;;;16.34;nan;100217.16;5073120;28;20157;-83
2023/07/22 04:41:46;;;;;;;;;;;;;;;16.42;nan;100208.19;5071319;28;19916;-83
2023/07/22 04:44:11;;;;;;;;;;;;;;;16.46;nan;100217.44;5060025;28;20388;-82
2023/07/22 04:46:36;;;;;;;;;;;;;;;;;;5059385;28;19916;-82
2023/07/22 04:49:02;;;;;;;;;;;;;;;16.56;nan;100223.25;5077550;28;19965;-83
2023/07/22 04:51:31;;;;;;;;;;;;;;;16.58;nan;100214.22;5064357;28;19927;-83
2023/07/22 04:53:57;;;;;;;;;;;;;;;16.62;nan;100210.94;5059088;28;19913;-83
2023/07/22 04:56:22;;;;;;;;;;;;;;;16.74;nan;100209.34;5062435;28;19931;-83
2023/07/22 04:58:47;;;;;;;;;;;;;;;16.79;nan;100222.13;5068061;28;19917;-83
2023/07/22 05:01:12;;;;;;;;;;;;;;;16.89;nan;100216.41;5051730;28;19917;-83
2023/07/22 05:03:37;;;;;;;;;;;;;;;17.01;nan;100224.66;5057179;28;19923;-83
2023/07/22 05:06:03;;;;;;;;;;;;;;;17.11;nan;100236.63;5056684;28;20383;-83
2023/07/22 05:08:31;;;;;;;;;;;;;;;17.29;nan;100225.34;5060797;28;19928;-83
2023/07/22 05:10:56;;;;;;;;;;;;;;;17.38;nan;100220.63;5061218;28;19976;-83
2023/07/22 05:13:21;;;;;;;;;;;;;;;17.43;nan;100217.34;5065734;28;19971;-83
2023/07/22 05:15:46;;;;;;;;;;;;;;;17.49;nan;100229.88;5059002;28;20015;-83
2023/07/22 05:18:12;;;;;;;;;;;;;;;17.49;nan;100233.38;5067158;28;19922;-83
2023/07/22 05:20:37;;;;;;;;;;;;;;;17.49;nan;100236.06;5071045;28;20357;-83
2023/07/22 05:23:03;;;;;;;;;;;;;;;17.51;nan;100246.56;5062921;28;19917;-84
2023/07/22 05:25:28;;;;;;;;;;;;;;;17.53;nan;100231.13;5058892;28;19916;-83
2023/07/22 05:27:53;;;;;;;;;;;;;;;17.56;nan;100236.88;5057674;28;19979;-83
2023/07/22 05:30:18;;;;;;;;;;;;;;;17.62;nan;100238.75;5060469;28;19919;-83
2023/07/22 05:32:43;;;;;;;;;;;;;;;;;;5056217;28;20313;-83
2023/07/22 05:35:09;;;;;;;;;;;;;;;17.80;nan;100245.31;5054660;28;20348;-83
2023/07/22 05:37:34;;;;;;;;;;;;;;;17.91;nan;100247.41;5048421;28;19923;-83
2023/07/22 05:40:02;;;;;;;;;;;;;;;18.06;nan;100254.41;5053856;28;19948;-83
2023/07/22 05:42:36;;;;;;;;;;;;;;;18.17;nan;100273.31;5054740;28;19925;-83
2023/07/22 05:45:07;;;;;;;;;;;;;;;;;;5063355;28;19916;-83
2023/07/22 05:48:10;;;;;;;;;;;;;;;18.38;nan;100269.59;5056958;28;20234;-84
2023/07/22 05:50:44;;;;;;;;;;;;;;;18.53;nan;100271.22;5023733;28;19916;-83
2023/07/22 05:56:48;;;;;;;;;;;;;;;18.64;nan;100258.00;5002943;28;19924;-83
2023/07/22 05:59:21;;;;;;;;;;;;;;;18.64;nan;100273.25;4987153;28;19925;-84
2023/07/22 06:05:04;;;;;;;;;;;;;;;19.07;nan;100272.69;5041225;28;19950;-83
2023/07/22 06:07:51;;;;;;;;;;;;;;;19.65;nan;100279.75;5042671;28;19925;-83
2023/07/22 06:17:05;;;;;;;;;;;;;;;;;;;;;
2023/07/22 06:23:05;;;;;;;;;;;;;;;;;;;;;
2023/07/22 06:25:56;;;;;;;;;;;;;;;20.37;nan;100460.94;5058264;28;19983;-83
2023/07/22 06:31:30;;;;;;;;;;;;;;;20.78;nan;100469.53;5053529;28;19923;-82
2023/07/22 06:33:59;;;;;;;;;;;;;;;21.39;nan;100463.34;5042736;28;20007;-82
2023/07/22 06:36:43;;;;;;;;;;;;;;;21.71;nan;100331.28;5063474;28;20007;-82
2023/07/22 06:42:14;;;;;;;;;;;;;;;;;;;;;
2023/07/22 06:44:46;;;;;;;;;;;;;;;21.62;nan;100338.06;5050578;28;20015;-83
2023/07/22 06:50:04;;;;;;;;;;;;;;;;;;5043934;28;19917;-83
2023/07/22 06:52:35;;;;;;;;;;;;;;;;;;5029257;28;19922;-83
2023/07/22 06:55:00;;;;;;;;;;;;;;;21.09;nan;100336.84;5051434;28;20104;-83
2023/07/22 06:57:26;;;;;;;;;;;;;;;21.08;nan;100343.28;5055924;28;19924;-83
2023/07/22 07:00:07;;;;;;;;;;;;;;;20.90;nan;100336.03;5040161;28;19986;-83
2023/07/22 07:02:40;;;;;;;;;;;;;;;20.90;nan;100335.22;5015523;28;20326;-82
2023/07/22 07:05:18;;;;;;;;;;;;;;;;;;;;;
2023/07/22 07:07:57;;;;;;;;;;;;;;;20.88;nan;100340.00;5044022;28;20003;-83
2023/07/22 07:13:53;;;;;;;;;;;;;;;20.68;nan;100333.00;4978431;28;19928;-83
2023/07/22 07:16:35;;;;;;;;;;;;;;;20.72;nan;100344.13;4978200;28;19918;-83
2023/07/22 07:19:10;;;;;;;;;;;;;;;20.76;nan;100345.31;4968990;28;19953;-83
2023/07/22 07:21:55;;;;;;;;;;;;;;;20.74;nan;100342.03;4981899;28;19976;-83
2023/07/22 07:24:55;;;;;;;;;;;;;;;20.81;nan;100350.84;4990301;28;19956;-84
2023/07/22 07:27:33;;;;;;;;;;;;;;;20.78;nan;100348.59;5052598;28;19959;-84
2023/07/22 07:29:58;;;;;;;;;;;;;;;20.91;nan;100355.72;5046503;28;19924;-85
2023/07/22 07:32:23;;;;;;;;;;;;;;;20.86;nan;100361.75;5022763;28;19924;-83
2023/07/22 07:35:00;;;;;;;;;;;;;;;20.61;nan;100336.78;5042911;28;19939;-84
2023/07/22 07:37:28;;;;;;;;;;;;;;;20.45;nan;100339.00;5049808;28;20172;-82
2023/07/22 07:39:59;;;;;;;;;;;;;;;20.53;nan;100337.88;5051639;28;19932;-83
2023/07/22 07:42:24;;;;;;;;;;;;;;;20.55;nan;100344.69;5054045;28;19947;-83
2023/07/22 07:44:49;;;;;;;;;;;;;;;20.62;nan;100338.41;5054066;28;19920;-83
2023/07/22 07:47:15;;;;;;;;;;;;;;;20.61;nan;100336.78;5041338;28;19917;-82
2023/07/22 07:49:40;;;;;;;;;;;;;;;;;;5047168;28;20310;-84
2023/07/22 07:52:05;;;;;;;;;;;;;;;20.71;nan;100337.09;5065610;28;19974;-84
2023/07/22 07:54:31;;;;;;;;;;;;;;;20.85;nan;100348.53;5048591;28;19919;-84
2023/07/22 07:56:56;;;;;;;;;;;;;;;21.08;nan;100353.22;5054154;28;19972;-84
2023/07/22 07:59:24;;;;;;;;;;;;;;;21.34;nan;100352.91;5047016;28;19927;-84
2023/07/22 08:01:49;;;;;;;;;;;;;;;21.69;nan;100348.72;5064748;28;19916;-83
2023/07/22 08:04:17;;;;;;;;;;;;;;;21.88;nan;100357.53;5045266;28;19963;-83
2023/07/22 08:06:57;;;;;;;;;;;;;;;21.92;nan;100359.56;5051469;28;20290;-84
2023/07/22 08:09:26;;;;;;;;;;;;;;;21.69;nan;100346.88;5055654;28;19917;-85
2023/07/22 08:11:51;;;;;;;;;;;;;;;21.85;nan;100358.81;5053639;28;19951;-84
2023/07/22 08:14:18;;;;;;;;;;;;;;;22.12;nan;100361.09;5049290;28;20413;-83
2023/07/22 08:16:43;;;;;;;;;;;;;;;22.45;nan;100369.50;5061190;28;19924;-83
2023/07/22 08:19:08;;;;;;;;;;;;;;;22.65;nan;100368.31;5060164;28;19916;-84
2023/07/22 08:21:34;;;;;;;;;;;;;;;22.68;nan;100374.03;5049516;28;19924;-85
2023/07/22 08:23:59;;;;;;;;;;;;;;;22.46;nan;100368.44;5057637;28;20024;-84
2023/07/22 08:26:24;;;;;;;;;;;;;;;22.35;nan;100373.81;5046801;28;19916;-85
2023/07/22 08:28:50;;;;;;;;;;;;;;;22.30;nan;100379.91;5047279;28;19916;-83
2023/07/22 08:31:15;;;;;;;;;;;;;;;22.29;nan;100372.06;5060018;28;20371;-83
2023/07/22 08:33:40;;;;;;;;;;;;;;;22.36;nan;100372.78;5065836;28;19984;-84
2023/07/22 08:36:06;;;;;;;;;;;;;;;22.47;nan;100378.13;5066127;28;19919;-84
2023/07/22 08:38:31;;;;;;;;;;;;;;;22.78;nan;100372.63;5058531;28;20354;-85
2023/07/22 08:40:57;;;;;;;;;;;;;;;;;;5064825;28;20059;-83
2023/07/22 08:43:22;;;;;;;;;;;;;;;;;;5056569;28;19924;-84
2023/07/22 08:45:51;;;;;;;;;;;;;;;23.72;nan;100377.78;5048905;28;19931;-83
2023/07/22 08:48:21;;;;;;;;;;;;;;;23.40;nan;100363.94;5056524;28;19917;-85
2023/07/22 08:50:59;;;;;;;;;;;;;;;22.96;nan;100369.81;5054348;28;20156;-86
2023/07/22 08:53:25;;;;;;;;;;;;;;;22.77;nan;100355.66;5061410;28;19921;-84
2023/07/22 08:55:50;;;;;;;;;;;;;;;22.75;nan;100356.94;5067933;28;19916;-83
2023/07/22 08:58:16;;;;;;;;;;;;;;;23.38;nan;100364.19;5063964;28;19916;-85
2023/07/22 09:00:42;;;;;;;;;;;;;;;23.87;nan;100380.78;5062734;28;19925;-83
2023/07/22 09:03:07;;;;;;;;;;;;;;;24.24;nan;100369.53;5061328;28;19924;-83
2023/07/22 09:05:33;;;;;;;;;;;;;;;24.16;nan;100372.63;5066451;28;19921;-84
2023/07/22 09:08:01;;;;;;;;;;;;;;;23.99;nan;100356.41;5060456;28;19917;-83
2023/07/22 09:10:27;;;;;;;;;;;;;;;23.78;nan;100359.81;5058991;28;19932;-83
2023/07/22 09:12:53;;;;;;;;;;;;;;;23.69;nan;100362.91;5059263;28;19928;-83
2023/07/22 09:15:18;;;;;;;;;;;;;;;23.65;nan;100355.53;5059666;28;19916;-83
2023/07/22 09:17:44;;;;;;;;;;;;;;;23.79;nan;100362.28;5060750;28;19917;-83
2023/07/22 09:20:13;;;;;;;;;;;;;;;23.96;nan;100351.50;5056733;28;19917;-84
2023/07/22 09:22:43;;;;;;;;;;;;;;;24.40;nan;100356.22;5062426;28;19975;-85
2023/07/22 09:25:25;;;;;;;;;;;;;;;25.61;nan;100475.31;5054964;28;19932;-84
2023/07/22 09:27:52;;;;;;;;;;;;;;;26.35;nan;100479.34;5051618;28;19928;-84
2023/07/22 09:30:29;;;;;;;;;;;;;;;26.56;nan;100468.72;5051089;28;19913;-84
2023/07/22 09:32:59;;;;;;;;;;;;;;;26.52;nan;100470.28;5072257;28;19917;-83
2023/07/22 09:35:28;;;;;;;;;;;;;;;26.92;nan;100461.66;5059613;28;19994;-83
2023/07/22 09:37:54;;;;;;;;;;;;;;;27.52;nan;100465.75;5051593;28;19998;-84
2023/07/22 09:40:27;;;;;;;;;;;;;;;28.51;nan;100456.75;5042900;28;19917;-84
2023/07/22 09:42:52;;;;;;;;;;;;;;;;;;5047160;28;20040;-83
2023/07/22 09:45:24;;;;;;;;;;;;;;;29.65;nan;100458.84;5058116;28;19912;-83
2023/07/22 09:47:51;;;;;;;;;;;;;;;30.04;nan;100456.19;5060567;28;19940;-83
2023/07/22 09:50:17;;;;;;;;;;;;;;;29.95;nan;100454.38;5061656;28;19919;-83
2023/07/22 09:52:47;;;;;;;;;;;;;;;30.26;nan;100444.88;5063026;28;19920;-84
2023/07/22 09:55:19;;;;;;;;;;;;;;;30.92;nan;100442.66;5051633;28;19917;-84
2023/07/22 09:57:45;;;;;;;;;;;;;;;30.85;nan;100440.25;5054521;28;19913;-84
2023/07/22 10:00:19;;;;;;;;;;;;;;;31.77;nan;100438.28;5060222;28;19912;-82
2023/07/22 10:02:49;;;;;;;;;;;;;;;32.09;nan;100444.97;5064527;28;19905;-83
2023/07/22 10:05:16;;;;;;;;;;;;;;;31.86;nan;100439.25;5063677;28;19912;-84
2023/07/22 10:07:51;;;;;;;;;;;;;;;31.47;nan;100434.09;5062415;28;20016;-83
2023/07/22 10:10:18;;;;;;;;;;;;;;;31.13;nan;100434.22;5053124;28;19928;-84
2023/07/22 10:12:44;;;;;;;;;;;;;;;30.91;nan;100421.91;5054458;28;19958;-83
2023/07/22 10:15:19;;;;;;;;;;;;;;;30.68;nan;100429.75;5042334;28;19912;-84
2023/07/22 10:17:48;;;;;;;;;;;;;;;30.04;nan;100419.94;5043820;28;19920;-85
2023/07/22 10:20:16;;;;;;;;;;;;;;;29.97;nan;100424.91;5046118;28;19919;-84
2023/07/22 10:22:45;;;;;;;;;;;;;;;29.55;nan;100427.03;5062485;28;20212;-84
2023/07/22 10:25:12;;;;;;;;;;;;;;;29.17;nan;100423.13;5064207;28;19913;-83
2023/07/22 10:27:39;;;;;;;;;;;;;;;29.05;nan;100417.16;5060458;28;19913;-82
2023/07/22 10:30:05;;;;;;;;;;;;;;;28.79;nan;100418.06;5058008;28;19919;-82
2023/07/22 10:32:32;;;;;;;;;;;;;;;29.63;nan;100412.03;5050205;28;20297;-84
2023/07/22 10:34:57;;;;;;;;;;;;;;;29.29;nan;100401.81;5056528;28;19924;-82
2023/07/22 10:37:29;;;;;;;;;;;;;;;28.80;nan;100408.00;5041262;28;19913;-83
2023/07/22 10:39:58;;;;;;;;;;;;;;;28.34;nan;100400.69;5058239;28;19921;-84
2023/07/22 10:42:27;;;;;;;;;;;;;;;27.78;nan;100402.53;5063636;28;19916;-82
2023/07/22 10:44:52;;;;;;;;;;;;;;;27.43;nan;100404.06;5054141;28;19928;-83
2023/07/22 10:47:34;;;;;;;;;;;;;;;27.32;nan;100401.34;5060859;28;19913;-83
2023/07/22 10:50:05;;;;;;;;;;;;;;;27.21;nan;100398.84;5047499;28;19916;-82
2023/07/22 10:52:42;;;;;;;;;;;;;;;27.16;nan;100401.50;5049949;28;19912;-83
2023/07/22 10:55:14;;;;;;;;;;;;;;;27.39;nan;100394.81;5058180;28;19981;-83
2023/07/22 10:57:55;;;;;;;;;;;;;;;28.77;nan;100405.78;5057833;28;20176;-85
2023/07/22 11:00:23;;;;;;;;;;;;;;;28.83;nan;100401.97;5057191;28;19924;-83
2023/07/22 11:03:07;;;;;;;;;;;;;;;28.31;nan;100400.41;5059040;28;19921;-84
2023/07/22 11:05:49;;;;;;;;;;;;;;;27.89;nan;100396.88;5065824;28;19940;-84
2023/07/22 11:08:35;;;;;;;;;;;;;;;27.48;nan;100401.38;5063894;28;19919;-85
2023/07/22 11:11:01;;;;;;;;;;;;;;;26.92;nan;100396.53;5045761;28;19955;-83
2023/07/22 11:13:28;;;;;;;;;;;;;;;26.49;nan;100395.69;5072418;28;19912;-82
2023/07/22 11:15:57;;;;;;;;;;;;;;;26.19;nan;100393.56;5046266;28;19912;-84
2023/07/22 11:18:36;;;;;;;;;;;;;;;25.90;nan;100379.50;5066170;28;19947;-83
2023/07/22 11:21:05;;;;;;;;;;;;;;;25.76;nan;100384.47;5064792;28;19917;-84
2023/07/22 11:23:32;;;;;;;;;;;;;;;25.90;nan;100377.59;5060046;28;19971;-81
2023/07/22 11:25:58;;;;;;;;;;;;;;;27.26;nan;100379.84;5058744;28;20008;-82
2023/07/22 11:28:23;;;;;;;;;;;;;;;29.53;nan;100371.19;5039352;28;19948;-83
2023/07/22 11:30:49;;;;;;;;;;;;;;;29.83;nan;100381.91;5051186;28;19938;-83
2023/07/22 11:33:14;;;;;;;;;;;;;;;29.39;nan;100380.00;5049257;28;19923;-84
2023/07/22 11:35:45;;;;;;;;;;;;;;;28.74;nan;100377.22;5057974;28;19912;-82
2023/07/22 11:38:13;;;;;;;;;;;;;;;28.53;nan;100373.78;5058679;28;19912;-83
2023/07/22 11:40:38;;;;;;;;;;;;;;;30.54;nan;100367.97;5058934;28;19924;-84
2023/07/22 11:43:04;;;;;;;;;;;;;;;32.68;nan;100368.69;5055675;28;19921;-84
2023/07/22 11:45:29;;;;;;;;;;;;;;;34.59;nan;100358.50;5056461;28;19913;-84
2023/07/22 11:47:55;;;;;;;;;;;;;;;35.90;nan;100354.03;5054694;28;19913;-84
2023/07/22 11:50:31;;;;;;;;;;;;;;;35.46;nan;100353.22;5038117;28;19916;-84
2023/07/22 11:52:57;;;;;;;;;;;;;;;33.75;nan;100352.72;5049824;28;19978;-83
2023/07/22 11:55:24;;;;;;;;;;;;;;;32.10;nan;100340.72;5040941;28;19921;-83
2023/07/22 11:57:53;;;;;;;;;;;;;;;30.90;nan;100349.28;5033949;28;19913;-84
2023/07/22 12:00:18;;;;;;;;;;;;;;;30.16;nan;100341.28;5048289;28;19913;-83
2023/07/22 12:02:43;;;;;;;;;;;;;;;30.44;nan;100338.88;5048329;28;19928;-84
2023/07/22 12:05:08;;;;;;;;;;;;;;;31.42;nan;100336.59;5048966;28;19919;-83
2023/07/22 12:07:35;;;;;;;;;;;;;;;31.19;nan;100335.53;5050747;28;19995;-84
2023/07/22 12:10:03;;;;;;;;;;;;;;;30.52;nan;100330.06;5041587;28;19917;-83
2023/07/22 12:12:32;;;;;;;;;;;;;;;30.35;nan;100318.78;5039880;28;20366;-83
2023/07/22 12:15:04;;;;;;;;;;;;;;;31.21;nan;100324.31;5048464;28;19927;-83
2023/07/22 12:17:29;;;;;;;;;;;;;;;32.01;nan;100328.03;5049718;28;19913;-83
2023/07/22 12:19:54;;;;;;;;;;;;;;;32.30;nan;100320.38;5047311;28;19978;-84
2023/07/22 12:22:19;;;;;;;;;;;;;;;32.21;nan;100315.91;5048691;28;19924;-83
2023/07/22 12:24:46;;;;;;;;;;;;;;;31.77;nan;100311.72;5038884;28;19924;-83
2023/07/22 12:27:12;;;;;;;;;;;;;;;32.11;nan;100314.19;5049688;28;19927;-83
2023/07/22 12:29:37;;;;;;;;;;;;;;;32.26;nan;100310.34;5051656;28;19917;-84
2023/07/22 12:32:02;;;;;;;;;;;;;;;32.29;nan;100316.00;5042986;28;20006;-83
2023/07/22 12:34:28;;;;;;;;;;;;;;;31.79;nan;100299.38;5050677;28;19912;-84
2023/07/22 12:36:53;;;;;;;;;;;;;;;31.26;nan;100305.91;5053623;28;19912;-84
2023/07/22 12:39:18;;;;;;;;;;;;;;;30.55;nan;100304.09;5035601;28;19917;-84
2023/07/22 12:41:43;;;;;;;;;;;;;;;29.91;nan;100301.44;5045032;28;20397;-84
2023/07/22 12:44:08;;;;;;;;;;;;;;;29.50;nan;100298.22;5053582;28;19923;-83
2023/07/22 12:46:34;;;;;;;;;;;;;;;29.13;nan;100296.81;5052058;28;19912;-83
2023/07/22 12:48:59;;;;;;;;;;;;;;;28.44;nan;100292.97;5046356;28;19935;-83
2023/07/22 12:51:24;;;;;;;;;;;;;;;28.28;nan;100297.63;5042510;28;19976;-82
2023/07/22 12:53:49;;;;;;;;;;;;;;;28.56;nan;100288.06;5048718;28;20313;-84
2023/07/22 12:56:14;;;;;;;;;;;;;;;28.87;nan;100290.66;5040828;28;20394;-83
2023/07/22 12:58:39;;;;;;;;;;;;;;;29.20;nan;100287.25;5054148;28;20297;-83
2023/07/22 13:01:05;;;;;;;;;;;;;;;29.33;nan;100280.34;5056268;28;20007;-83
2023/07/22 13:03:30;;;;;;;;;;;;;;;29.33;nan;100274.09;5054095;28;20278;-84
2023/07/22 13:05:55;;;;;;;;;;;;;;;29.66;nan;100256.13;5052164;28;19948;-84
2023/07/22 13:08:20;;;;;;;;;;;;;;;29.63;nan;100262.16;5051154;28;20168;-84
2023/07/22 13:10:47;;;;;;;;;;;;;;;29.15;nan;100261.94;5041321;28;19920;-85
2023/07/22 13:13:12;;;;;;;;;;;;;;;29.11;nan;100267.16;5043592;28;19913;-83
2023/07/22 13:15:37;;;;;;;;;;;;;;;29.11;nan;100260.91;5054366;28;20381;-84
2023/07/22 13:18:02;;;;;;;;;;;;;;;29.00;nan;100252.75;5057736;28;19912;-82
2023/07/22 13:20:28;;;;;;;;;;;;;;;29.09;nan;100260.34;5057830;28;19923;-83
2023/07/22 13:22:54;;;;;;;;;;;;;;;29.08;nan;100253.28;5058056;28;19980;-82
2023/07/22 13:25:20;;;;;;;;;;;;;;;29.06;nan;100255.44;5059137;28;19928;-83
2023/07/22 13:27:45;;;;;;;;;;;;;;;29.23;nan;100247.75;5055209;28;20152;-82
2023/07/22 13:30:10;;;;;;;;;;;;;;;29.09;nan;100254.91;5055028;28;19923;-82
2023/07/22 13:32:35;;;;;;;;;;;;;;;28.95;nan;100257.41;5045027;28;20348;-83
2023/07/22 13:35:01;;;;;;;;;;;;;;;28.93;nan;100257.69;5048401;28;20318;-82
2023/07/22 13:37:26;;;;;;;;;;;;;;;28.74;nan;100252.06;5064560;28;19919;-82
2023/07/22 13:39:53;;;;;;;;;;;;;;;28.70;nan;100255.63;5051721;28;19916;-84